Time;durP1;ratioP1;P1;durP2;ratioP2;P2;SDS_P1;SDS_P2;PMS_P1;PMS_P2;Temp;Humidity;BMP_temperature;BMP_pressure;BME280_temperature;BME280_humidity;BME280_pressure;Samples;Min_cycle;Max_cycle;Signal;HPM_P1;HPM_P2
2022/08/03 00:00:02;;;;;;;11.40;5.03;;;;;;;;;;5103599;27;20058;-64
2022/08/03 00:02:28;;;;;;;14.43;6.05;;;;;;;;;;5118753;27;20038;-64
2022/08/03 00:04:55;;;;;;;15.10;6.10;;;;;;;;;;5123176;27;20061;-64
2022/08/03 00:07:21;;;;;;;15.10;6.72;;;;;;;;;;5129873;27;20079;-64
2022/08/03 00:09:47;;;;;;;16.48;6.88;;;;;;;;;;5128362;27;20039;-64
2022/08/03 00:12:13;;;;;;;16.08;6.85;;;;;;;;;;5112654;27;20133;-64
2022/08/03 00:14:40;;;;;;;16.33;7.60;;;;;;;;;;5128087;27;20461;-64
2022/08/03 00:17:06;;;;;;;16.13;6.28;;;;;;;;;;5125112;27;20096;-64
2022/08/03 00:19:32;;;;;;;17.38;6.25;;;;;;;;;;5121073;27;20121;-64
2022/08/03 00:21:58;;;;;;;14.07;7.15;;;;;;;;;;5120654;27;20072;-64
2022/08/03 00:24:24;;;;;;;15.90;7.07;;;;;;;;;;5118898;27;20059;-64
2022/08/03 00:26:50;;;;;;;18.85;7.57;;;;;;;;;;5124254;27;20347;-64
2022/08/03 00:29:17;;;;;;;18.48;7.22;;;;;;;;;;5125080;27;20042;-64
2022/08/03 00:31:43;;;;;;;16.02;7.40;;;;;;;;;;5121609;27;20035;-64
2022/08/03 00:34:09;;;;;;;13.48;6.95;;;;;;;;;;5121378;27;20356;-64
2022/08/03 00:36:35;;;;;;;16.50;6.82;;;;;;;;;;5119522;27;20122;-64
2022/08/03 00:39:01;;;;;;;18.92;7.53;;;;;;;;;;5120191;27;20055;-64
2022/08/03 00:41:27;;;;;;;15.93;7.30;;;;;;;;;;5117477;27;20563;-64
2022/08/03 00:43:54;;;;;;;18.92;7.72;;;;;;;;;;5120427;27;20394;-64
2022/08/03 00:46:21;;;;;;;18.10;6.95;;;;;;;;;;5118888;27;20093;-64
2022/08/03 00:48:48;;;;;;;14.07;7.25;;;;;;;;;;5132123;27;20526;-64
2022/08/03 00:51:14;;;;;;;13.80;7.13;;;;;;;;;;5108819;27;20047;-64
2022/08/03 00:53:40;;;;;;;15.77;7.53;;;;;;;;;;5125509;27;20424;-64
2022/08/03 00:56:07;;;;;;;17.08;6.88;;;;;;;;;;5126923;27;20027;-64
2022/08/03 00:58:33;;;;;;;16.13;7.63;;;;;;;;;;5128665;27;20058;-64
2022/08/03 01:00:59;;;;;;;19.95;7.90;;;;;;;;;;5102150;27;20043;-64
2022/08/03 01:03:25;;;;;;;16.45;7.30;;;;;;;;;;5134288;27;20046;-64
2022/08/03 01:05:51;;;;;;;18.95;7.30;;;;;;;;;;5108284;27;20042;-64
2022/08/03 01:08:22;;;;;;;11.85;6.53;;;;;;;;;;5104904;27;20113;-64
2022/08/03 01:10:59;;;;;;;16.02;7.40;;;;;;;;;;5125047;27;20118;-64
2022/08/03 01:13:35;;;;;;;13.65;6.90;;;;;;;;;;5127472;27;21518;-64
2022/08/03 01:16:03;;;;;;;16.85;7.18;;;;;;;;;;5106946;27;20127;-64
2022/08/03 01:18:34;;;;;;;18.75;6.88;;;;;;;;;;5104916;27;20051;-64
2022/08/03 01:21:03;;;;;;;14.85;6.75;;;;;;;;;;5122502;27;20524;-64
2022/08/03 01:23:29;;;;;;;17.08;6.70;;;;;;;;;;5103906;27;20054;-64
2022/08/03 01:26:03;;;;;;;20.17;7.05;;;;;;;;;;5130603;27;20074;-64
2022/08/03 01:28:48;;;;;;;18.10;5.88;;;;;;;;;;5131416;27;20047;-64
2022/08/03 01:31:18;;;;;;;12.95;6.05;;;;;;;;;;5120315;27;20410;-64
2022/08/03 01:33:47;;;;;;;19.95;6.28;;;;;;;;;;5129122;27;20043;-64
2022/08/03 01:36:15;;;;;;;17.10;6.10;;;;;;;;;;5128346;27;20454;-64
2022/08/03 01:38:44;;;;;;;20.27;7.10;;;;;;;;;;5125720;27;20473;-64
2022/08/03 01:41:11;;;;;;;21.92;6.75;;;;;;;;;;5109481;27;20071;-64
2022/08/03 01:43:40;;;;;;;18.40;6.78;;;;;;;;;;5129303;27;20062;-64
2022/08/03 01:46:07;;;;;;;15.25;6.13;;;;;;;;;;5122549;27;20047;-64
2022/08/03 01:48:33;;;;;;;17.92;6.55;;;;;;;;;;5120496;27;20387;-64
2022/08/03 01:51:00;;;;;;;16.65;6.28;;;;;;;;;;5126471;27;20043;-64
2022/08/03 01:53:27;;;;;;;14.00;5.85;;;;;;;;;;5103998;27;20049;-64
2022/08/03 01:55:54;;;;;;;18.10;6.57;;;;;;;;;;5121936;27;20490;-64
2022/08/03 01:58:20;;;;;;;16.30;6.47;;;;;;;;;;5130877;27;20591;-64
2022/08/03 02:00:47;;;;;;;13.63;6.30;;;;;;;;;;5132339;27;20723;-64
2022/08/03 02:03:15;;;;;;;14.73;6.68;;;;;;;;;;5111535;27;20458;-64
2022/08/03 02:05:42;;;;;;;18.50;6.50;;;;;;;;;;5106817;27;20426;-64
2022/08/03 02:08:10;;;;;;;19.40;7.05;;;;;;;;;;5139041;27;20069;-64
2022/08/03 02:10:37;;;;;;;13.60;5.38;;;;;;;;;;5134116;27;20061;-64
2022/08/03 02:13:04;;;;;;;12.10;5.70;;;;;;;;;;5135009;27;20046;-64
2022/08/03 02:15:32;;;;;;;16.98;5.38;;;;;;;;;;5124918;27;20039;-64
2022/08/03 02:17:58;;;;;;;14.48;5.22;;;;;;;;;;5133780;27;20443;-64
2022/08/03 02:20:25;;;;;;;14.82;5.95;;;;;;;;;;5128162;27;20070;-64
2022/08/03 02:22:51;;;;;;;14.50;5.30;;;;;;;;;;5131185;27;20058;-64
2022/08/03 02:25:17;;;;;;;13.38;6.15;;;;;;;;;;5110777;27;20601;-64
2022/08/03 02:28:01;;;;;;;15.15;5.85;;;;;;;;;;5109309;27;20078;-64
2022/08/03 02:30:30;;;;;;;17.85;5.88;;;;;;;;;;5128779;27;20493;-64
2022/08/03 02:32:57;;;;;;;13.93;5.90;;;;;;;;;;5130329;27;20135;-64
2022/08/03 02:35:24;;;;;;;17.17;7.20;;;;;;;;;;5129924;27;20035;-64
2022/08/03 02:37:52;;;;;;;15.07;5.88;;;;;;;;;;5128743;27;20113;-64
2022/08/03 02:40:19;;;;;;;12.98;6.28;;;;;;;;;;5124551;27;20035;-64
2022/08/03 02:42:46;;;;;;;11.93;5.97;;;;;;;;;;5131199;27;20072;-64
2022/08/03 02:45:14;;;;;;;18.77;6.25;;;;;;;;;;5126499;27;20454;-64
2022/08/03 02:47:42;;;;;;;10.20;5.43;;;;;;;;;;5129624;27;20390;-64
2022/08/03 02:50:10;;;;;;;13.77;6.03;;;;;;;;;;5125187;27;20122;-64
2022/08/03 02:52:37;;;;;;;12.30;4.93;;;;;;;;;;5104391;27;20047;-64
2022/08/03 02:55:04;;;;;;;18.30;5.63;;;;;;;;;;5121266;27;20085;-64
2022/08/03 02:57:31;;;;;;;15.13;6.00;;;;;;;;;;5121237;27;20646;-64
2022/08/03 02:59:57;;;;;;;12.32;5.25;;;;;;;;;;5117499;27;20074;-64
2022/08/03 03:02:24;;;;;;;15.73;5.13;;;;;;;;;;5121989;27;20508;-64
2022/08/03 03:04:51;;;;;;;16.23;5.45;;;;;;;;;;5122781;27;20413;-64
2022/08/03 03:07:17;;;;;;;15.38;5.72;;;;;;;;;;5121087;27;20463;-64
2022/08/03 03:09:44;;;;;;;13.65;5.35;;;;;;;;;;5120597;27;20043;-64
2022/08/03 03:12:12;;;;;;;13.75;4.88;;;;;;;;;;5101105;27;20051;-64
2022/08/03 03:14:38;;;;;;;13.55;5.65;;;;;;;;;;5121758;27;20043;-64
2022/08/03 03:17:06;;;;;;;14.02;4.65;;;;;;;;;;5107228;27;20592;-64
2022/08/03 03:19:33;;;;;;;12.95;4.70;;;;;;;;;;5118612;27;20476;-64
2022/08/03 03:22:01;;;;;;;14.00;5.55;;;;;;;;;;5120908;27;20097;-64
2022/08/03 03:24:28;;;;;;;14.32;4.80;;;;;;;;;;5116370;27;20067;-64
2022/08/03 03:26:56;;;;;;;17.95;6.78;;;;;;;;;;5118224;27;20070;-64
2022/08/03 03:29:22;;;;;;;11.38;5.28;;;;;;;;;;5123097;27;20047;-64
2022/08/03 03:31:48;;;;;;;11.52;4.78;;;;;;;;;;5101365;27;20163;-64
2022/08/03 03:34:15;;;;;;;14.02;5.32;;;;;;;;;;5122045;27;20474;-64
2022/08/03 03:36:41;;;;;;;15.65;5.28;;;;;;;;;;5122596;27;20148;-64
2022/08/03 03:39:07;;;;;;;12.68;5.28;;;;;;;;;;5124012;27;20410;-64
2022/08/03 03:41:34;;;;;;;18.80;5.78;;;;;;;;;;5121396;27;20055;-64
2022/08/03 03:44:00;;;;;;;14.02;5.35;;;;;;;;;;5120157;27;20386;-64
2022/08/03 03:46:26;;;;;;;14.15;5.40;;;;;;;;;;5101863;27;20096;-64
2022/08/03 03:48:53;;;;;;;15.15;5.43;;;;;;;;;;5120508;27;20494;-64
2022/08/03 03:51:19;;;;;;;15.80;5.72;;;;;;;;;;5123161;27;20065;-64
2022/08/03 03:53:56;;;;;;;17.17;5.45;;;;;;;;;;5123733;27;20039;-64
2022/08/03 03:56:23;;;;;;;13.82;5.55;;;;;;;;;;5123426;27;20123;-64
2022/08/03 03:58:49;;;;;;;20.30;5.93;;;;;;;;;;5120907;27;20073;-64
2022/08/03 04:01:15;;;;;;;14.90;5.55;;;;;;;;;;5106024;27;20081;-64
2022/08/03 04:03:42;;;;;;;16.08;6.00;;;;;;;;;;5123063;27;20348;-64
2022/08/03 04:10:57;;;;;;;15.80;6.20;;;;;;;;;;5120579;27;20050;-64
2022/08/03 04:11:49;;;;;;;19.30;6.47;;;;;;;;;;5121475;27;20107;-64
2022/08/03 04:14:28;;;;;;;13.13;6.00;;;;;;;;;;5125003;27;20050;-64
2022/08/03 04:16:56;;;;;;;14.20;5.47;;;;;;;;;;5120456;27;20055;-64
2022/08/03 04:19:38;;;;;;;16.08;6.28;;;;;;;;;;5123955;27;20043;-64
2022/08/03 04:22:06;;;;;;;20.02;6.60;;;;;;;;;;5119954;27;20047;-64
2022/08/03 04:24:34;;;;;;;14.20;6.22;;;;;;;;;;5122629;27;20122;-64
2022/08/03 04:27:02;;;;;;;20.38;6.25;;;;;;;;;;5123032;27;20092;-64
2022/08/03 04:29:29;;;;;;;10.27;5.82;;;;;;;;;;5120765;27;20079;-64
2022/08/03 04:31:55;;;;;;;20.02;7.10;;;;;;;;;;5126785;27;20043;-64
2022/08/03 04:34:22;;;;;;;16.10;6.65;;;;;;;;;;5121074;27;20479;-64
2022/08/03 04:36:49;;;;;;;20.75;6.25;;;;;;;;;;5129064;27;20043;-64
2022/08/03 04:39:19;;;;;;;15.00;6.13;;;;;;;;;;5126853;27;20046;-64
2022/08/03 04:41:46;;;;;;;12.05;5.60;;;;;;;;;;5126468;27;20035;-64
2022/08/03 04:44:13;;;;;;;18.95;6.03;;;;;;;;;;5120524;27;20455;-64
2022/08/03 04:46:40;;;;;;;15.43;5.80;;;;;;;;;;5122303;27;20122;-64
2022/08/03 04:49:06;;;;;;;12.35;6.22;;;;;;;;;;5125176;27;20046;-64
2022/08/03 04:51:36;;;;;;;18.70;5.55;;;;;;;;;;5121678;27;20050;-64
2022/08/03 04:54:03;;;;;;;21.90;5.97;;;;;;;;;;5125708;27;20049;-64
2022/08/03 04:56:29;;;;;;;17.55;5.95;;;;;;;;;;5125160;27;20039;-64
2022/08/03 04:58:55;;;;;;;17.38;6.03;;;;;;;;;;5124776;27;20050;-64
2022/08/03 05:01:22;;;;;;;15.65;5.68;;;;;;;;;;5093985;27;20492;-64
2022/08/03 05:03:48;;;;;;;16.85;5.40;;;;;;;;;;5127186;27;20055;-64
2022/08/03 05:06:14;;;;;;;18.45;5.95;;;;;;;;;;5127895;27;20058;-64
2022/08/03 05:08:40;;;;;;;19.65;5.47;;;;;;;;;;5119894;27;20406;-64
2022/08/03 05:11:07;;;;;;;20.10;6.22;;;;;;;;;;5124786;27;20079;-64
2022/08/03 05:13:33;;;;;;;17.27;5.80;;;;;;;;;;5132325;27;20106;-64
2022/08/03 05:16:00;;;;;;;13.55;5.38;;;;;;;;;;5097661;27;20055;-64
2022/08/03 05:18:27;;;;;;;15.68;5.63;;;;;;;;;;5126675;27;20054;-64
2022/08/03 05:20:53;;;;;;;16.80;5.75;;;;;;;;;;5130834;27;20039;-64
2022/08/03 05:23:19;;;;;;;10.10;5.22;;;;;;;;;;5120265;27;20670;-64
2022/08/03 05:25:45;;;;;;;19.48;5.57;;;;;;;;;;5118679;27;20408;-64
2022/08/03 05:28:11;;;;;;;21.50;5.80;;;;;;;;;;5120129;27;20051;-65
2022/08/03 05:30:38;;;;;;;17.10;5.35;;;;;;;;;;5104123;27;20137;-63
2022/08/03 05:33:04;;;;;;;21.33;6.30;;;;;;;;;;5118927;27;20039;-63
2022/08/03 05:35:31;;;;;;;13.45;5.95;;;;;;;;;;5121352;27;20111;-63
2022/08/03 05:37:57;;;;;;;15.90;5.93;;;;;;;;;;5100327;28;20047;-63
2022/08/03 05:40:23;;;;;;;12.65;4.60;;;;;;;;;;5122749;27;20035;-63
2022/08/03 05:42:49;;;;;;;26.60;5.05;;;;;;;;;;5121016;27;20471;-63
2022/08/03 05:45:17;;;;;;;23.33;6.60;;;;;;;;;;5119627;27;20035;-63
2022/08/03 05:47:44;;;;;;;17.52;5.72;;;;;;;;;;5117038;27;20054;-63
2022/08/03 05:50:11;;;;;;;15.50;5.57;;;;;;;;;;5116085;27;20047;-63
2022/08/03 05:52:38;;;;;;;15.05;5.35;;;;;;;;;;5126095;27;20043;-63
2022/08/03 05:55:05;;;;;;;16.80;5.50;;;;;;;;;;5123088;27;20042;-63
2022/08/03 05:57:31;;;;;;;13.60;5.90;;;;;;;;;;5120264;27;20046;-63
2022/08/03 05:59:57;;;;;;;13.45;5.30;;;;;;;;;;5124358;27;20962;-63
2022/08/03 06:02:24;;;;;;;17.00;6.10;;;;;;;;;;5119139;27;20502;-63
2022/08/03 06:04:50;;;;;;;17.40;5.22;;;;;;;;;;5121893;27;20119;-63
2022/08/03 06:07:16;;;;;;;13.85;5.22;;;;;;;;;;5124092;27;20046;-63
2022/08/03 06:09:42;;;;;;;17.52;5.30;;;;;;;;;;5103365;27;20047;-63
2022/08/03 06:12:09;;;;;;;18.63;5.80;;;;;;;;;;5119768;27;20122;-63
2022/08/03 06:14:35;;;;;;;19.02;5.10;;;;;;;;;;5126694;27;20048;-63
2022/08/03 06:17:01;;;;;;;20.15;5.85;;;;;;;;;;5124710;27;20046;-63
2022/08/03 06:19:27;;;;;;;17.42;5.80;;;;;;;;;;5121403;27;20047;-63
2022/08/03 06:21:53;;;;;;;17.40;6.20;;;;;;;;;;5124951;27;20427;-63
2022/08/03 06:24:19;;;;;;;16.08;5.55;;;;;;;;;;5120312;27;20039;-63
2022/08/03 06:26:45;;;;;;;17.40;6.28;;;;;;;;;;5126177;27;20042;-63
2022/08/03 06:29:12;;;;;;;14.75;5.25;;;;;;;;;;5118490;27;20047;-63
2022/08/03 06:31:38;;;;;;;18.92;6.32;;;;;;;;;;5126264;27;20490;-63
2022/08/03 06:34:05;;;;;;;15.63;6.35;;;;;;;;;;5136064;27;20413;-61
2022/08/03 06:36:31;;;;;;;18.65;6.50;;;;;;;;;;5128458;27;20115;-63
2022/08/03 06:38:58;;;;;;;22.00;6.35;;;;;;;;;;5128570;27;20049;-64
2022/08/03 06:41:24;;;;;;;15.38;5.88;;;;;;;;;;5129297;27;20038;-63
2022/08/03 06:43:51;;;;;;;21.23;6.28;;;;;;;;;;5126328;27;20460;-63
2022/08/03 06:46:17;;;;;;;20.40;6.25;;;;;;;;;;5110374;27;20051;-63
2022/08/03 06:48:43;;;;;;;20.08;5.80;;;;;;;;;;5106686;27;20050;-63
2022/08/03 06:51:10;;;;;;;23.88;6.13;;;;;;;;;;5127651;27;20364;-63
2022/08/03 06:53:36;;;;;;;18.65;6.80;;;;;;;;;;5126101;27;20389;-63
2022/08/03 06:56:04;;;;;;;23.95;7.10;;;;;;;;;;5125812;27;20148;-66
2022/08/03 06:58:30;;;;;;;19.95;5.75;;;;;;;;;;5105400;27;20043;-66
2022/08/03 07:00:56;;;;;;;27.58;6.68;;;;;;;;;;5125222;27;20035;-66
2022/08/03 07:03:22;;;;;;;14.68;5.07;;;;;;;;;;5144013;27;20046;-66
2022/08/03 07:05:50;;;;;;;26.98;6.25;;;;;;;;;;5131273;27;20054;-64
2022/08/03 07:08:16;;;;;;;19.65;6.18;;;;;;;;;;5135258;27;20043;-63
2022/08/03 07:10:43;;;;;;;21.33;6.00;;;;;;;;;;5145081;27;20042;-64
2022/08/03 07:13:09;;;;;;;24.95;6.63;;;;;;;;;;5137058;27;20055;-63
2022/08/03 07:15:36;;;;;;;18.20;6.30;;;;;;;;;;5145146;27;20039;-64
2022/08/03 07:18:02;;;;;;;19.98;6.80;;;;;;;;;;5140694;27;20085;-64
2022/08/03 07:20:28;;;;;;;24.88;6.75;;;;;;;;;;5128788;27;20055;-64
2022/08/03 07:22:54;;;;;;;20.38;6.03;;;;;;;;;;5131762;27;20047;-64
2022/08/03 07:25:21;;;;;;;19.00;6.43;;;;;;;;;;5134093;27;20115;-64
2022/08/03 07:27:47;;;;;;;20.20;6.25;;;;;;;;;;5133058;27;20086;-64
2022/08/03 07:30:14;;;;;;;25.70;6.13;;;;;;;;;;5140607;27;20043;-64
2022/08/03 07:32:41;;;;;;;19.80;5.70;;;;;;;;;;5098838;27;20489;-64
2022/08/03 07:35:07;;;;;;;27.58;7.20;;;;;;;;;;5098668;27;20052;-64
2022/08/03 07:37:33;;;;;;;23.60;6.00;;;;;;;;;;5120120;27;20042;-64
2022/08/03 07:40:00;;;;;;;18.90;6.10;;;;;;;;;;5104504;27;20122;-64
2022/08/03 07:42:27;;;;;;;21.98;6.05;;;;;;;;;;5114220;27;20046;-64
2022/08/03 07:44:54;;;;;;;24.63;5.97;;;;;;;;;;5131599;27;20495;-64
2022/08/03 07:47:22;;;;;;;23.27;5.45;;;;;;;;;;5105554;27;20046;-64
2022/08/03 07:49:48;;;;;;;27.20;5.85;;;;;;;;;;5115837;27;20043;-65
2022/08/03 07:55:00;;;;;;;22.02;6.13;;;;;;;;;;5107391;27;20066;-67
2022/08/03 07:57:26;;;;;;;23.05;6.15;;;;;;;;;;5132364;27;20460;-68
2022/08/03 07:59:52;;;;;;;24.42;6.25;;;;;;;;;;5107586;27;20050;-71
2022/08/03 08:02:18;;;;;;;22.85;6.30;;;;;;;;;;5111297;27;20047;-70
2022/08/03 08:04:45;;;;;;;22.48;6.70;;;;;;;;;;5122065;27;20466;-71
2022/08/03 08:07:11;;;;;;;23.33;6.75;;;;;;;;;;5131637;27;20378;-70
2022/08/03 08:09:37;;;;;;;20.50;7.32;;;;;;;;;;5110751;27;20061;-70
2022/08/03 08:12:03;;;;;;;22.45;7.82;;;;;;;;;;5136382;27;20038;-70
2022/08/03 08:14:29;;;;;;;16.83;7.40;;;;;;;;;;5109629;27;20047;-70
2022/08/03 08:16:56;;;;;;;22.80;8.00;;;;;;;;;;5106723;27;20055;-69
2022/08/03 08:19:22;;;;;;;26.38;7.35;;;;;;;;;;5117576;27;20051;-69
2022/08/03 08:21:48;;;;;;;27.55;8.07;;;;;;;;;;5130628;27;20121;-70
2022/08/03 08:24:14;;;;;;;27.38;8.25;;;;;;;;;;5114398;27;20047;-70
2022/08/03 08:26:40;;;;;;;20.98;8.30;;;;;;;;;;5116044;27;20789;-70
2022/08/03 08:29:06;;;;;;;17.13;6.90;;;;;;;;;;5117781;27;20087;-69
2022/08/03 08:31:33;;;;;;;20.38;7.22;;;;;;;;;;5127616;27;20039;-69
2022/08/03 08:34:04;;;;;;;22.85;7.15;;;;;;;;;;5129519;27;20043;-69
2022/08/03 08:36:31;;;;;;;20.90;6.97;;;;;;;;;;5110924;27;20043;-70
2022/08/03 08:38:57;;;;;;;23.38;7.30;;;;;;;;;;5133287;27;20050;-70
2022/08/03 08:41:23;;;;;;;20.60;8.32;;;;;;;;;;5127509;27;20035;-70
2022/08/03 08:43:50;;;;;;;25.02;8.23;;;;;;;;;;5129017;27;20207;-69
2022/08/03 08:46:16;;;;;;;24.20;8.85;;;;;;;;;;5109313;27;20046;-70
2022/08/03 08:48:43;;;;;;;18.00;8.52;;;;;;;;;;5131763;27;20428;-69
2022/08/03 08:51:11;;;;;;;26.15;9.95;;;;;;;;;;5119543;27;20395;-70
2022/08/03 08:53:38;;;;;;;23.25;8.68;;;;;;;;;;5123674;27;20058;-70
2022/08/03 08:56:05;;;;;;;30.08;9.60;;;;;;;;;;5113708;27;20099;-70
2022/08/03 08:58:36;;;;;;;23.75;10.68;;;;;;;;;;5128791;27;20035;-69
2022/08/03 09:01:03;;;;;;;27.38;11.07;;;;;;;;;;5129962;27;20467;-69
2022/08/03 09:03:29;;;;;;;20.83;10.57;;;;;;;;;;5108705;27;20051;-69
2022/08/03 09:05:55;;;;;;;24.35;10.93;;;;;;;;;;5107772;27;20039;-69
2022/08/03 09:08:22;;;;;;;19.42;10.40;;;;;;;;;;5114543;27;20034;-69
2022/08/03 09:10:48;;;;;;;19.92;10.82;;;;;;;;;;5117266;27;20126;-69
2022/08/03 09:13:14;;;;;;;27.80;11.25;;;;;;;;;;5133752;27;21560;-69
2022/08/03 09:15:41;;;;;;;26.90;11.40;;;;;;;;;;5131152;27;20133;-66
2022/08/03 09:18:08;;;;;;;29.48;11.48;;;;;;;;;;5131908;27;20070;-66
2022/08/03 09:20:35;;;;;;;23.13;11.25;;;;;;;;;;5131259;27;20058;-65
2022/08/03 09:23:03;;;;;;;26.17;12.45;;;;;;;;;;5132965;27;20039;-66
2022/08/03 09:25:30;;;;;;;24.45;11.10;;;;;;;;;;5132688;27;20137;-66
2022/08/03 09:28:04;;;;;;;27.15;11.68;;;;;;;;;;5130867;27;20209;-65
2022/08/03 09:30:30;;;;;;;28.73;12.13;;;;;;;;;;5133949;27;20042;-65
2022/08/03 09:33:03;;;;;;;22.85;11.02;;;;;;;;;;5129279;27;20042;-65
2022/08/03 09:35:29;;;;;;;;;;;;;;;;;;5134353;27;20430;-65
2022/08/03 09:38:12;;;;;;;23.30;12.55;;;;;;;;;;5139069;27;20350;-65
2022/08/03 09:40:39;;;;;;;26.50;11.85;;;;;;;;;;5133785;27;20388;-65
2022/08/03 09:43:07;;;;;;;27.92;10.93;;;;;;;;;;5124811;27;20121;-66
2022/08/03 09:45:33;;;;;;;27.90;12.55;;;;;;;;;;5124052;27;20070;-66
2022/08/03 09:48:19;;;;;;;31.27;14.20;;;;;;;;;;5118587;27;20087;-66
2022/08/03 09:50:49;;;;;;;30.83;13.55;;;;;;;;;;5115848;27;20039;-65
2022/08/03 09:53:16;;;;;;;23.73;11.98;;;;;;;;;;5140201;27;20038;-66
2022/08/03 09:55:53;;;;;;;24.20;12.05;;;;;;;;;;5135853;27;20037;-66
2022/08/03 09:58:20;;;;;;;25.02;12.55;;;;;;;;;;5138386;27;20081;-66
2022/08/03 10:00:55;;;;;;;23.33;13.02;;;;;;;;;;5135750;27;20038;-65
2022/08/03 10:03:21;;;;;;;29.05;12.93;;;;;;;;;;5134498;27;20069;-66
2022/08/03 10:05:47;;;;;;;23.38;13.18;;;;;;;;;;5131090;27;20096;-62
2022/08/03 10:08:16;;;;;;;25.48;12.68;;;;;;;;;;5130560;27;20453;-63
2022/08/03 10:10:43;;;;;;;23.95;12.40;;;;;;;;;;5126756;27;20050;-63
2022/08/03 10:13:14;;;;;;;30.08;12.65;;;;;;;;;;5126213;27;20048;-60
2022/08/03 10:15:40;;;;;;;24.17;11.77;;;;;;;;;;5130925;27;20074;-59
2022/08/03 10:18:07;;;;;;;29.30;11.50;;;;;;;;;;5131521;27;20429;-63
2022/08/03 10:20:43;;;;;;;28.77;12.57;;;;;;;;;;5140441;27;20046;-63
2022/08/03 10:23:10;;;;;;;32.13;12.00;;;;;;;;;;5134889;27;20043;-62
2022/08/03 10:25:39;;;;;;;36.47;12.20;;;;;;;;;;5140681;27;20108;-63
2022/08/03 10:28:06;;;;;;;28.13;10.25;;;;;;;;;;5111649;27;20064;-64
2022/08/03 10:30:33;;;;;;;24.55;11.23;;;;;;;;;;5138216;27;20367;-63
2022/08/03 10:32:59;;;;;;;23.17;11.43;;;;;;;;;;5137178;27;20076;-66
2022/08/03 10:35:25;;;;;;;25.70;11.10;;;;;;;;;;5131770;27;20050;-66
2022/08/03 10:37:57;;;;;;;24.88;10.80;;;;;;;;;;5134255;27;20397;-63
2022/08/03 10:40:24;;;;;;;32.38;11.95;;;;;;;;;;5132077;27;20104;-64
2022/08/03 10:42:53;;;;;;;26.88;11.65;;;;;;;;;;5129166;27;20038;-63
2022/08/03 10:45:25;;;;;;;36.47;11.13;;;;;;;;;;5131178;27;20068;-62
2022/08/03 10:47:52;;;;;;;24.70;10.65;;;;;;;;;;5128511;27;20035;-63
2022/08/03 10:50:19;;;;;;;24.80;11.48;;;;;;;;;;5127033;27;20047;-63
2022/08/03 10:52:55;;;;;;;25.80;10.85;;;;;;;;;;5126485;27;20101;-62
2022/08/03 10:58:36;;;;;;;24.40;10.80;;;;;;;;;;5131925;27;20039;-63
2022/08/03 11:01:04;;;;;;;25.42;10.98;;;;;;;;;;5139482;27;20047;-60
2022/08/03 11:03:31;;;;;;;23.85;11.38;;;;;;;;;;5132020;27;20042;-60
2022/08/03 11:06:17;;;;;;;27.20;11.35;;;;;;;;;;5133619;27;20039;-60
2022/08/03 11:08:44;;;;;;;24.27;10.18;;;;;;;;;;5130643;27;20522;-60
2022/08/03 11:11:16;;;;;;;21.35;9.77;;;;;;;;;;5128534;27;20111;-60
2022/08/03 11:13:57;;;;;;;26.20;11.90;;;;;;;;;;5128169;27;20454;-60
2022/08/03 11:16:23;;;;;;;22.98;9.23;;;;;;;;;;5126720;27;20062;-60
2022/08/03 11:18:58;;;;;;;26.15;9.98;;;;;;;;;;5127694;27;20501;-60
2022/08/03 11:21:44;;;;;;;23.95;9.70;;;;;;;;;;5130005;27;20052;-60
2022/08/03 11:24:10;;;;;;;29.92;9.90;;;;;;;;;;5128607;27;20059;-60
2022/08/03 11:26:36;;;;;;;23.15;9.90;;;;;;;;;;5134129;27;20103;-60
2022/08/03 11:29:21;;;;;;;22.15;9.02;;;;;;;;;;5136436;27;20085;-60
2022/08/03 11:31:47;;;;;;;21.23;9.38;;;;;;;;;;5131184;27;20076;-61
2022/08/03 11:34:14;;;;;;;26.35;9.95;;;;;;;;;;5134759;27;20470;-60
2022/08/03 11:36:59;;;;;;;27.58;8.95;;;;;;;;;;5132120;27;20034;-60
2022/08/03 11:39:39;;;;;;;19.60;9.57;;;;;;;;;;5126841;27;20034;-60
2022/08/03 11:42:25;;;;;;;23.90;8.85;;;;;;;;;;5138168;27;20047;-64
2022/08/03 11:44:52;;;;;;;22.77;7.68;;;;;;;;;;5117137;27;20121;-60
2022/08/03 11:47:19;;;;;;;21.38;8.52;;;;;;;;;;5132099;27;20042;-59
2022/08/03 11:49:47;;;;;;;18.20;8.20;;;;;;;;;;5115602;27;21015;-59
2022/08/03 11:52:13;;;;;;;25.58;9.70;;;;;;;;;;5131885;27;20072;-59
2022/08/03 11:54:40;;;;;;;23.10;9.45;;;;;;;;;;5135202;27;20039;-59
2022/08/03 11:57:06;;;;;;;23.83;8.48;;;;;;;;;;5138861;27;20416;-62
2022/08/03 11:59:33;;;;;;;21.48;9.60;;;;;;;;;;5127349;27;20042;-62
2022/08/03 12:02:06;;;;;;;19.95;7.80;;;;;;;;;;5126496;27;20102;-62
2022/08/03 12:04:49;;;;;;;23.65;8.85;;;;;;;;;;5125165;27;20123;-65
2022/08/03 12:07:16;;;;;;;25.00;9.53;;;;;;;;;;5122365;27;20074;-61
2022/08/03 12:09:42;;;;;;;25.00;7.95;;;;;;;;;;5126550;27;20336;-62
2022/08/03 12:12:09;;;;;;;20.08;8.27;;;;;;;;;;5126302;27;20106;-62
2022/08/03 12:14:35;;;;;;;23.65;7.47;;;;;;;;;;5136102;27;20371;-62
2022/08/03 12:17:01;;;;;;;21.88;7.60;;;;;;;;;;5133759;27;20190;-62
2022/08/03 12:19:40;;;;;;;20.98;7.18;;;;;;;;;;5132454;27;20091;-63
2022/08/03 12:22:07;;;;;;;20.88;7.25;;;;;;;;;;5133237;27;20134;-85
2022/08/03 12:24:47;;;;;;;21.02;7.55;;;;;;;;;;5099153;27;20466;-63
2022/08/03 12:27:22;;;;;;;23.48;8.00;;;;;;;;;;5136788;27;20032;-63
2022/08/03 12:29:50;;;;;;;20.52;7.65;;;;;;;;;;5124581;27;20050;-63
2022/08/03 12:32:16;;;;;;;23.23;9.50;;;;;;;;;;5133593;27;20593;-63
2022/08/03 12:34:47;;;;;;;20.50;10.10;;;;;;;;;;5124372;27;20118;-64
2022/08/03 12:37:13;;;;;;;22.48;8.63;;;;;;;;;;5119683;27;20134;-62
2022/08/03 12:39:39;;;;;;;30.20;10.52;;;;;;;;;;5116864;27;20046;-63
2022/08/03 12:42:06;;;;;;;23.83;9.13;;;;;;;;;;5121377;27;20039;-62
2022/08/03 12:44:33;;;;;;;23.65;8.43;;;;;;;;;;5104998;27;20047;-63
2022/08/03 12:47:00;;;;;;;22.38;8.80;;;;;;;;;;5124327;27;21416;-62
2022/08/03 12:49:27;;;;;;;23.42;7.57;;;;;;;;;;5123941;27;20039;-63
2022/08/03 12:51:53;;;;;;;21.90;8.57;;;;;;;;;;5121065;27;20102;-63
2022/08/03 12:54:20;;;;;;;18.45;8.68;;;;;;;;;;5102566;27;20048;-63
2022/08/03 12:57:03;;;;;;;18.40;7.95;;;;;;;;;;5122788;27;20039;-63
2022/08/03 12:59:30;;;;;;;22.00;8.48;;;;;;;;;;5120849;27;20046;-63
2022/08/03 13:01:56;;;;;;;20.58;6.97;;;;;;;;;;5124182;27;20039;-63
2022/08/03 13:04:27;;;;;;;18.33;7.35;;;;;;;;;;5104805;27;20092;-63
2022/08/03 13:07:00;;;;;;;23.08;6.75;;;;;;;;;;5122072;27;20043;-63
2022/08/03 13:09:27;;;;;;;18.85;8.25;;;;;;;;;;5124733;27;20095;-63
2022/08/03 13:12:09;;;;;;;22.65;7.32;;;;;;;;;;5126292;27;20420;-62
2022/08/03 13:14:35;;;;;;;27.90;7.25;;;;;;;;;;5135478;27;20031;-62
2022/08/03 13:17:02;;;;;;;19.83;7.18;;;;;;;;;;5128806;27;20061;-63
2022/08/03 13:19:28;;;;;;;21.17;7.07;;;;;;;;;;5126968;27;20076;-63
2022/08/03 13:21:54;;;;;;;21.15;7.18;;;;;;;;;;5136544;27;20047;-64
2022/08/03 13:24:20;;;;;;;18.55;6.18;;;;;;;;;;5135918;27;20389;-64
2022/08/03 13:26:46;;;;;;;18.67;5.90;;;;;;;;;;5131386;27;20081;-64
2022/08/03 13:29:13;;;;;;;18.33;5.68;;;;;;;;;;5128359;27;20054;-64
2022/08/03 13:31:39;;;;;;;20.83;6.57;;;;;;;;;;5127644;27;20501;-64
2022/08/03 13:34:05;;;;;;;21.52;6.65;;;;;;;;;;5133676;27;20046;-64
2022/08/03 13:36:31;;;;;;;17.83;5.35;;;;;;;;;;5131355;27;20047;-64
2022/08/03 13:38:58;;;;;;;20.77;6.43;;;;;;;;;;5130237;27;20114;-64
2022/08/03 13:41:24;;;;;;;20.25;6.43;;;;;;;;;;5133887;27;20364;-64
2022/08/03 13:43:51;;;;;;;25.65;6.85;;;;;;;;;;5131118;27;20141;-64
2022/08/03 13:46:17;;;;;;;23.35;5.43;;;;;;;;;;5129132;27;20069;-64
2022/08/03 13:48:43;;;;;;;23.20;6.47;;;;;;;;;;5135793;27;20154;-64
2022/08/03 13:51:09;;;;;;;22.83;5.70;;;;;;;;;;5136463;27;20039;-64
2022/08/03 13:53:35;;;;;;;18.20;6.03;;;;;;;;;;5130830;27;20469;-64
2022/08/03 13:56:01;;;;;;;18.25;6.68;;;;;;;;;;5129855;27;20066;-64
2022/08/03 13:58:28;;;;;;;19.50;5.60;;;;;;;;;;5109649;27;20095;-64
2022/08/03 14:00:54;;;;;;;17.52;5.93;;;;;;;;;;5129024;27;20043;-64
2022/08/03 14:03:20;;;;;;;18.88;6.15;;;;;;;;;;5130401;27;20047;-64
2022/08/03 14:05:47;;;;;;;18.15;5.45;;;;;;;;;;5122946;27;20081;-64
2022/08/03 14:08:13;;;;;;;19.70;5.78;;;;;;;;;;5150844;27;20038;-64
2022/08/03 14:10:40;;;;;;;21.05;5.90;;;;;;;;;;5142830;27;20050;-64
2022/08/03 14:13:07;;;;;;;19.77;5.53;;;;;;;;;;5150493;27;20045;-64
2022/08/03 14:15:33;;;;;;;23.05;6.03;;;;;;;;;;5146757;27;20392;-64
2022/08/03 14:17:59;;;;;;;14.02;4.88;;;;;;;;;;5149961;27;20493;-64
2022/08/03 14:20:26;;;;;;;19.05;5.32;;;;;;;;;;5150871;27;20062;-64
2022/08/03 14:22:53;;;;;;;17.40;5.72;;;;;;;;;;5145143;27;20070;-64
2022/08/03 14:25:19;;;;;;;17.90;5.28;;;;;;;;;;5144615;27;20045;-64
2022/08/03 14:27:46;;;;;;;20.25;5.95;;;;;;;;;;5145406;27;20050;-64
2022/08/03 14:30:12;;;;;;;14.80;5.65;;;;;;;;;;5131347;27;20501;-62
2022/08/03 14:32:39;;;;;;;20.25;6.32;;;;;;;;;;5150771;27;20096;-62
2022/08/03 14:35:05;;;;;;;14.27;5.30;;;;;;;;;;5146506;27;20115;-62
2022/08/03 14:37:32;;;;;;;18.23;5.72;;;;;;;;;;5151000;27;20434;-62
2022/08/03 14:39:59;;;;;;;18.55;5.28;;;;;;;;;;5146509;27;20085;-62